Time;durP1;ratioP1;P1;durP2;ratioP2;P2;SDS_P1;SDS_P2;PMS_P1;PMS_P2;Temp;Humidity;BMP_temperature;BMP_pressure;BME280_temperature;BME280_humidity;BME280_pressure;Samples;Min_cycle;Max_cycle;Signal;HPM_P1;HPM_P2
2024/04/06 00:03:43;;;;;;;21.80;10.40;;;;;;;14.80;100.00;99770.58;667506;1275;22661;-83
2024/04/06 00:19:06;;;;;;;153.80;62.40;;;;;;;14.87;100.00;99774.35;667157;1259;22540;-83
2024/04/06 00:34:09;;;;;;;208.30;78.60;;;;;;;14.73;100.00;99777.70;666260;1275;22785;-82
2024/04/06 00:49:16;;;;;;;127.80;48.40;;;;;;;14.72;100.00;99788.20;666104;1263;139354;-82
2024/04/06 01:04:24;;;;;;;21.80;10.60;;;;;;;14.78;100.00;99799.52;666291;1263;139633;-81
2024/04/06 01:19:30;;;;;;;13.00;7.20;;;;;;;14.93;100.00;99811.56;665828;1259;139642;-80
2024/04/06 01:34:34;;;;;;;14.50;7.50;;;;;;;15.07;100.00;99824.40;665535;1262;139774;-81
2024/04/06 01:49:41;;;;;;;18.10;6.20;;;;;;;15.00;100.00;99850.08;666061;1264;139426;-80
2024/04/06 02:04:47;;;;;;;10.10;5.50;;;;;;;14.86;100.00;99867.48;666574;1259;139495;-82
2024/04/06 02:19:50;;;;;;;10.80;5.00;;;;;;;14.59;100.00;99873.30;666389;1258;139550;-80
2024/04/06 02:34:53;;;;;;;9.50;4.00;;;;;;;14.36;100.00;99887.88;666950;1259;139268;-81
2024/04/06 02:49:56;;;;;;;10.50;4.90;;;;;;;14.23;100.00;99903.19;666314;1264;139007;-79
2024/04/06 03:05:03;;;;;;;24.40;4.70;;;;;;;14.08;100.00;99917.67;666259;1263;140282;-81
2024/04/06 03:20:08;;;;;;;10.30;4.00;;;;;;;13.99;100.00;99932.75;667194;1263;139959;-80
2024/04/06 03:35:16;;;;;;;9.40;3.70;;;;;;;13.78;100.00;99941.95;666316;1262;141480;-78
2024/04/06 03:50:20;;;;;;;9.10;3.30;;;;;;;13.69;100.00;99948.44;672559;1263;140085;-81
2024/04/06 04:05:26;;;;;;;10.70;5.80;;;;;;;13.57;100.00;99960.05;671203;1265;141177;-78
2024/04/06 04:20:32;;;;;;;10.80;4.70;;;;;;;13.45;100.00;99965.02;665858;1260;139466;-80
2024/04/06 04:35:56;;;;;;;15.80;5.40;;;;;;;13.27;100.00;99993.29;666515;1260;139797;-79
2024/04/06 04:51:03;;;;;;;7.90;3.80;;;;;;;13.14;100.00;100018.56;674292;1264;139804;-83
2024/04/06 05:06:29;;;;;;;8.10;3.80;;;;;;;13.19;100.00;100037.38;677795;1263;139748;-80
2024/04/06 05:21:32;;;;;;;15.60;5.20;;;;;;;13.38;100.00;100053.49;666578;1262;23352;-80
2024/04/06 05:36:35;;;;;;;14.10;4.40;;;;;;;13.71;100.00;100060.66;666638;1262;24297;-80
2024/04/06 05:51:38;;;;;;;12.00;4.40;;;;;;;14.23;100.00;100075.90;667860;1264;22650;-80
2024/04/06 06:07:03;;;;;;;7.50;2.80;;;;;;;17.81;97.88;100083.69;667609;1261;23920;-78
2024/04/06 06:22:09;;;;;;;12.70;4.40;;;;;;;20.10;89.04;100102.92;667147;1262;22654;-81
2024/04/06 06:37:13;;;;;;;9.50;3.10;;;;;;;20.86;79.25;100107.54;669709;1263;24042;-80
2024/04/06 06:52:37;;;;;;;9.70;3.00;;;;;;;21.50;73.79;100126.89;665959;1265;140889;-81
2024/04/06 07:07:40;;;;;;;10.70;3.80;;;;;;;22.43;70.83;100137.34;665995;1260;24233;-79
2024/04/06 07:22:46;;;;;;;44.50;30.30;;;;;;;21.12;72.03;100157.04;669126;1262;139368;-79
2024/04/06 07:37:50;;;;;;;25.20;11.20;;;;;;;22.47;69.67;100159.65;667894;1262;140182;-78
2024/04/06 07:52:59;;;;;;;16.60;5.20;;;;;;;21.59;69.83;100170.30;667128;1275;141107;-78
2024/04/06 08:08:03;;;;;;;25.30;10.30;;;;;;;22.58;69.90;100166.83;666685;1262;139771;-79
2024/04/06 08:23:06;;;;;;;9.20;3.80;;;;;;;22.98;66.51;100171.36;664879;1263;139482;-78
2024/04/06 08:38:12;;;;;;;8.10;3.00;;;;;;;23.25;65.55;100182.22;664874;1260;22529;-80
2024/04/06 08:53:15;;;;;;;11.20;2.80;;;;;;;22.61;67.65;100199.08;670034;1262;22661;-79
2024/04/06 09:08:18;;;;;;;12.80;3.00;;;;;;;22.98;66.33;100203.45;665548;1262;22540;-78
2024/04/06 09:23:25;;;;;;;9.20;3.10;;;;;;;23.01;64.33;100196.62;665616;1266;22594;-78
2024/04/06 09:38:28;;;;;;;7.50;2.60;;;;;;;23.97;64.68;100198.27;664677;1263;24232;-79
2024/04/06 09:53:33;;;;;;;9.20;3.30;;;;;;;24.18;62.89;100207.60;666174;1264;27645;-79
2024/04/06 10:08:51;;;;;;;7.80;2.70;;;;;;;24.16;62.28;100204.70;667302;1263;138110;-79
2024/04/06 10:23:54;;;;;;;11.30;2.60;;;;;;;24.14;62.57;100207.27;666562;1265;24411;-78
2024/04/06 10:39:04;;;;;;;16.80;7.20;;;;;;;23.93;62.02;100220.80;666006;1261;22683;-78
2024/04/06 10:54:08;;;;;;;7.10;2.90;;;;;;;23.77;62.70;100230.75;664151;1265;228260;-78
2024/04/06 11:09:12;;;;;;;16.60;5.40;;;;;;;23.73;62.84;100241.27;669680;1269;22534;-79
2024/04/06 11:24:15;;;;;;;11.40;4.00;;;;;;;23.38;61.96;100246.21;671792;1266;23068;-79
2024/04/06 11:39:18;;;;;;;10.80;3.40;;;;;;;23.05;61.61;100253.58;669319;1276;139444;-78
2024/04/06 11:54:22;;;;;;;18.50;7.90;;;;;;;23.42;61.65;100271.59;667913;1276;140006;-79
2024/04/06 12:09:30;;;;;;;7.90;3.20;;;;;;;22.79;60.94;100278.88;671655;1269;140174;-78
2024/04/06 12:24:37;;;;;;;10.50;2.80;;;;;;;23.16;61.01;100276.51;674651;1262;22553;-90
2024/04/06 12:39:57;;;;;;;9.00;3.00;;;;;;;23.35;61.17;100289.20;671089;1265;139578;-84
2024/04/06 12:55:00;;;;;;;12.10;4.20;;;;;;;22.64;62.57;100299.16;669335;1263;138676;-84
2024/04/06 13:10:06;;;;;;;9.40;2.70;;;;;;;22.86;62.03;100308.45;667715;1261;139891;-85
2024/04/06 13:25:18;;;;;;;10.60;2.80;;;;;;;22.42;63.11;100320.02;674695;1263;138095;-85
2024/04/06 13:40:22;;;;;;;13.20;2.70;;;;;;;22.14;63.32;100319.00;674697;1263;22581;-83
2024/04/06 13:55:25;;;;;;;8.70;2.70;;;;;;;22.04;63.17;100321.76;675432;1263;22563;-83
2024/04/06 14:10:29;;;;;;;12.60;2.40;;;;;;;21.78;63.22;100322.40;671106;1264;22557;-84
2024/04/06 14:25:36;;;;;;;10.20;2.70;;;;;;;21.36;63.14;100335.65;669687;1264;22564;-81
2024/04/06 14:40:40;;;;;;;27.70;14.40;;;;;;;21.12;62.65;100342.25;669718;1263;25351;-81
2024/04/06 14:56:06;;;;;;;19.70;7.60;;;;;;;21.37;62.60;100335.31;669479;1262;25404;-84
2024/04/06 15:11:13;;;;;;;36.20;17.20;;;;;;;22.64;60.02;100343.98;670997;1260;139041;-84
2024/04/06 15:26:17;;;;;;;46.50;24.50;;;;;;;22.88;59.49;100343.89;671336;1259;138813;-83
2024/04/06 15:41:20;;;;;;;38.80;15.50;;;;;;;23.14;60.20;100367.08;670279;1260;140187;-82
2024/04/06 15:56:23;;;;;;;54.50;19.10;;;;;;;22.69;60.57;100377.20;673354;1260;140418;-88
2024/04/06 16:11:27;;;;;;;73.80;33.70;;;;;;;22.01;61.29;100382.52;672710;1260;139484;-85
2024/04/06 16:26:31;;;;;;;71.30;34.60;;;;;;;21.10;63.45;100389.55;671067;1259;138953;-83
2024/04/06 16:41:35;;;;;;;57.20;27.00;;;;;;;20.65;64.92;100404.62;673285;1260;139221;-78
2024/04/06 16:56:38;;;;;;;230.50;118.00;;;;;;;20.23;66.24;100424.88;673013;1263;139201;-79
2024/04/06 17:11:42;;;;;;;220.90;128.00;;;;;;;19.68;67.58;100449.63;669520;1262;139329;-79
2024/04/06 17:26:45;;;;;;;259.10;129.40;;;;;;;19.33;68.34;100470.95;667914;1275;139112;-78
2024/04/06 17:41:49;;;;;;;235.90;119.80;;;;;;;18.95;68.73;100475.59;668375;1263;143126;-79
2024/04/06 17:56:52;;;;;;;212.70;96.30;;;;;;;18.15;69.90;100474.15;669703;1262;139988;-79
2024/04/06 18:11:56;;;;;;;119.60;50.00;;;;;;;17.64;71.49;100474.58;670576;1264;139820;-78
2024/04/06 18:27:00;;;;;;;198.90;84.00;;;;;;;17.14;72.99;100491.92;668117;1260;141862;-79
2024/04/06 18:42:03;;;;;;;66.60;31.70;;;;;;;16.55;74.10;100512.04;669038;1263;141495;-79
2024/04/06 18:57:06;;;;;;;111.90;44.40;;;;;;;15.90;74.77;100529.86;671229;1263;139925;-79
2024/04/06 19:12:09;;;;;;;495.70;201.20;;;;;;;15.58;76.35;100529.77;670373;1259;140008;-79
2024/04/06 19:27:13;;;;;;;84.50;36.00;;;;;;;15.38;77.77;100550.99;671514;1262;139566;-78
2024/04/06 19:42:18;;;;;;;176.10;73.60;;;;;;;14.91;78.64;100562.48;671336;1262;139578;-78
2024/04/06 19:57:22;;;;;;;78.40;31.40;;;;;;;14.72;80.14;100563.20;672465;1259;140355;-78
2024/04/06 20:12:26;;;;;;;44.30;21.10;;;;;;;14.48;80.94;100550.09;668943;1262;139848;-79
2024/04/06 20:27:29;;;;;;;167.30;76.80;;;;;;;14.22;82.37;100565.67;667408;1263;140056;-79
2024/04/06 20:42:32;;;;;;;174.90;77.30;;;;;;;14.01;83.21;100577.38;667494;1259;140243;-79
2024/04/06 20:57:37;;;;;;;223.30;93.10;;;;;;;13.88;83.99;100566.89;669055;1262;140102;-79
2024/04/06 21:12:44;;;;;;;157.50;70.10;;;;;;;13.74;84.87;100570.54;669035;1262;140109;-79
2024/04/06 21:27:47;;;;;;;133.60;61.20;;;;;;;13.60;85.23;100595.66;674679;1262;140008;-80
2024/04/06 21:42:51;;;;;;;96.50;42.00;;;;;;;13.39;85.61;100622.17;669950;1264;139851;-79
2024/04/06 21:57:54;;;;;;;67.30;27.30;;;;;;;13.14;86.11;100621.36;669117;1263;139639;-80
2024/04/06 22:12:57;;;;;;;54.00;21.50;;;;;;;13.02;86.71;100615.77;668461;1263;141545;-81
2024/04/06 22:28:00;;;;;;;114.70;50.00;;;;;;;13.05;86.66;100620.91;669671;1259;142851;-81
2024/04/06 22:43:03;;;;;;;150.80;55.60;;;;;;;12.93;87.14;100635.75;668227;1263;139626;-79
2024/04/06 22:58:06;;;;;;;99.50;42.00;;;;;;;12.73;87.22;100640.00;669337;1262;191402;-80
2024/04/06 23:13:10;;;;;;;88.10;39.80;;;;;;;12.63;87.38;100633.92;668212;1274;139638;-80
2024/04/06 23:28:16;;;;;;;70.70;31.90;;;;;;;12.44;87.48;100636.81;668029;1262;140429;-80
2024/04/06 23:43:19;;;;;;;98.50;39.10;;;;;;;12.31;87.98;100631.38;667925;1262;139869;-80
2024/04/06 23:58:22;;;;;;;70.80;29.10;;;;;;;12.23;88.20;100641.53;667976;1263;139205;-80
